EDT,Max TemperatureF,Mean TemperatureF,Min TemperatureF,Max Dew PointF,MeanDew PointF,Min DewpointF,Max Humidity, Mean Humidity, Min Humidity, Max Sea Level PressureIn, Mean Sea Level PressureIn, Min Sea Level PressureIn, Max VisibilityMiles, Mean VisibilityMiles, Min VisibilityMiles, Max Wind SpeedMPH, Mean Wind SpeedMPH, Max Gust SpeedMPH,PrecipitationIn, CloudCover, Events, WindDirDegrees
2012-9-1,79,68,55,67,61,52,93,71,49,30.11,29.98,29.83,10,10,10,14,8,20,0.00,1,,19
2012-9-2,73,65,57,61,58,55,100,80,57,30.13,30.10,30.06,10,10,10,7,2,,0.00,4,,144
2012-9-3,73,62,54,62,56,52,100,78,53,30.22,30.18,30.13,10,10,2,12,3,,0.00,0,,131
2012-9-4,75,68,63,72,67,60,100,90,78,30.16,30.04,29.92,10,10,2,14,6,20,0.03,7,Rain,159
2012-9-5,77,72,66,74,72,64,100,96,88,29.91,29.80,29.75,10,8,2,21,12,30,2.22,8,Rain-Thunderstorm,230
2012-9-6,75,66,60,66,63,60,100,86,71,29.90,29.88,29.82,10,10,9,7,4,,0.00,1,,188
2012-9-7,81,73,66,72,70,64,100,90,71,29.94,29.91,29.87,10,10,10,13,7,18,0.00,5,,211
2012-9-8,78,74,71,74,72,70,100,91,78,29.94,29.81,29.69,10,10,10,16,11,30,0.00,5,,188
2012-9-9,73,65,55,73,61,55,100,90,73,29.83,29.78,29.70,10,9,2,9,5,20,0.14,4,Rain,338
2012-9-10,68,62,57,61,53,45,100,75,54,30.00,29.89,29.82,10,10,10,17,7,25,0.00,2,,338
2012-9-11,69,58,50,51,48,44,93,69,45,30.27,30.17,30.02,10,10,10,13,7,20,0.00,0,,302
2012-9-12,73,60,46,58,52,45,96,72,42,30.37,30.33,30.28,10,10,10,12,3,,0.00,0,,229
2012-9-13,75,63,53,61,58,52,97,76,61,30.38,30.34,30.29,10,10,10,13,5,22,0.00,0,,214
2012-9-14,73,65,57,67,64,57,100,88,73,30.29,30.20,30.10,10,10,10,16,7,23,0.00,2,,205
2012-9-15,73,67,61,66,60,49,97,78,54,30.10,30.02,29.96,10,10,10,13,7,20,0.00,4,Rain,290
2012-9-16,69,58,46,53,50,45,96,74,51,30.07,30.03,29.99,10,10,10,8,3,,0.00,0,,341
2012-9-17,71,56,42,55,48,41,97,73,42,30.10,30.07,30.04,10,10,9,14,2,,0.00,0,,228
2012-9-18,75,62,51,67,60,50,96,77,65,30.08,29.97,29.82,10,10,10,21,8,34,0.00,2,,178
2012-9-19,73,64,55,69,60,48,100,83,52,30.15,29.90,29.76,10,8,2,18,12,28,1.00,5,Rain,253
2012-9-20,66,58,48,53,49,46,93,72,52,30.21,30.17,30.14,10,10,10,14,8,22,0.00,0,,37
2012-9-21,61,54,46,60,55,45,100,91,75,30.14,30.08,29.98,10,9,2,13,5,20,0.04,4,Rain,24
2012-9-22,68,64,59,64,60,59,100,94,78,29.96,29.93,29.87,10,6,1,12,8,18,0.00,6,Rain,303
2012-9-23,70,60,52,67,56,45,94,77,49,30.07,29.94,29.82,10,10,10,14,9,20,0.00,3,,300
2012-9-24,66,55,45,49,45,41,93,69,43,30.13,30.09,30.06,10,10,10,10,6,,0.00,0,,334
2012-9-25,70,54,39,55,47,38,97,70,42,30.21,30.17,30.14,10,10,9,21,7,30,0.00,0,,216
2012-9-26,73,68,64,65,61,54,94,79,68,30.17,30.09,30.03,10,10,9,22,12,29,0.00,4,Rain,210
2012-9-27,68,57,46,65,56,46,97,83,56,30.23,30.12,30.00,10,10,9,16,8,24,0.00,3,,316
2012-9-28,64,54,46,63,54,45,100,87,65,30.23,30.09,29.93,10,9,2,12,4,21,0.68,6,Rain-Thunderstorm,118
2012-9-29,66,60,55,65,60,55,100,99,93,29.92,29.88,29.85,10,6,1,14,3,20,1.06,8,Rain-Thunderstorm,342
2012-9-30,61,58,55,58,56,53,100,95,81,29.88,29.79,29.73,10,7,1,15,7,21,1.26,7,Rain,340